createdAt,value
2022-11-18T00:01:14.936Z,99195.61
2022-11-18T00:03:47.280Z,99189.13
2022-11-18T00:06:23.710Z,99185.75
2022-11-18T00:08:56.325Z,99185.16
2022-11-18T00:11:46.284Z,99181.02
2022-11-18T00:14:20.830Z,99183.79
2022-11-18T00:16:51.609Z,99181.63
2022-11-18T00:19:24.508Z,99177.74
2022-11-18T00:21:56.485Z,99179.27
2022-11-18T00:24:28.807Z,99183.63
2022-11-18T00:27:01.754Z,99185.68
2022-11-18T00:29:33.225Z,99185.63
2022-11-18T00:32:04.837Z,99185.23
2022-11-18T00:34:37.102Z,99186.11
2022-11-18T00:37:08.834Z,99186.42
2022-11-18T00:39:40.518Z,99182.56
2022-11-18T00:42:29.445Z,99188.55
2022-11-18T00:45:00.783Z,99186.70
2022-11-18T00:47:32.122Z,99186.11
2022-11-18T00:50:03.489Z,99186.83
2022-11-18T00:52:36.334Z,99184.07
2022-11-18T00:55:09.089Z,99184.92
2022-11-18T00:57:41.333Z,99182.64
2022-11-18T01:00:15.192Z,99181.90
2022-11-18T01:02:47.094Z,99181.64
2022-11-18T01:05:18.897Z,99181.86
2022-11-18T01:07:52.266Z,99182.08
2022-11-18T01:10:28.936Z,99184.55
2022-11-18T01:13:22.779Z,99186.55
2022-11-18T01:15:56.861Z,99181.64
2022-11-18T01:18:32.432Z,99183.24
2022-11-18T01:21:06.749Z,99176.89
2022-11-18T01:23:38.395Z,99177.46
2022-11-18T01:26:12.844Z,99180.28
2022-11-18T01:29:05.829Z,99181.09
2022-11-18T01:32:25.339Z,99181.80
2022-11-18T01:35:00.141Z,99181.40
2022-11-18T01:37:32.498Z,99176.50
2022-11-18T01:40:07.330Z,99178.00
2022-11-18T01:42:42.912Z,99181.65
2022-11-18T01:45:26.929Z,99185.03
2022-11-18T01:48:05.248Z,99182.12
2022-11-18T01:50:46.069Z,99178.27
2022-11-18T01:53:24.917Z,99171.91
2022-11-18T01:56:02.161Z,99170.08
2022-11-18T01:58:39.432Z,99172.45
2022-11-18T02:01:11.737Z,99169.80
2022-11-18T02:03:45.054Z,99165.04
2022-11-18T02:06:18.749Z,99160.55
2022-11-18T02:08:53.455Z,99159.77
2022-11-18T02:11:45.042Z,99159.50
2022-11-18T02:14:18.311Z,99155.40
2022-11-18T02:17:12.987Z,99148.59
2022-11-18T02:20:09.493Z,99144.23
2022-11-18T02:22:59.821Z,99138.46
2022-11-18T02:25:41.706Z,99142.00
2022-11-18T02:28:33.436Z,99140.04
2022-11-18T02:31:10.072Z,99138.56
2022-11-18T02:33:47.870Z,99136.52
2022-11-18T02:36:23.735Z,99139.12
2022-11-18T02:39:07.058Z,99142.12
2022-11-18T02:41:42.850Z,99140.09
2022-11-18T02:44:18.126Z,99137.52
2022-11-18T02:46:54.825Z,99130.02
2022-11-18T02:49:33.038Z,99124.60
2022-11-18T02:52:06.720Z,99126.53
2022-11-18T02:54:40.801Z,99127.28
2022-11-18T02:57:14.296Z,99129.23
2022-11-18T02:59:46.119Z,99127.91
2022-11-18T03:02:21.419Z,99136.08
2022-11-18T03:04:57.055Z,99131.34
2022-11-18T03:07:32.340Z,99140.24
2022-11-18T03:10:05.809Z,99139.66
2022-11-18T03:12:45.442Z,99139.29
2022-11-18T03:15:25.601Z,99141.52
2022-11-18T03:18:06.841Z,99142.13
2022-11-18T03:20:41.585Z,99144.23
2022-11-18T03:23:14.176Z,99146.23
2022-11-18T03:25:51.743Z,99142.10
2022-11-18T03:28:29.190Z,99139.52
2022-11-18T03:31:04.764Z,99143.34
2022-11-18T03:33:42.565Z,99140.59
2022-11-18T03:36:17.252Z,99139.23
2022-11-18T03:38:57.159Z,99138.33
2022-11-18T03:41:31.570Z,99136.52
2022-11-18T03:44:09.378Z,99136.13
2022-11-18T03:46:49.993Z,99136.39
2022-11-18T03:49:28.427Z,99138.14
2022-11-18T03:52:08.471Z,99138.27
2022-11-18T03:54:43.328Z,99134.98
2022-11-18T03:57:19.283Z,99136.08
2022-11-18T03:59:55.377Z,99134.79
2022-11-18T04:02:29.591Z,99137.14
2022-11-18T04:05:03.256Z,99135.48
2022-11-18T04:07:40.201Z,99129.40
2022-11-18T04:10:18.109Z,99128.77
2022-11-18T04:12:55.873Z,99125.71
2022-11-18T04:15:29.690Z,99126.18
2022-11-18T04:18:02.683Z,99121.67
2022-11-18T04:20:34.878Z,99118.95
2022-11-18T04:23:08.078Z,99122.27
2022-11-18T04:34:14.669Z,99118.77
2022-11-18T04:36:46.977Z,99124.50
2022-11-18T04:39:19.946Z,99132.23
2022-11-18T04:41:57.551Z,99125.48
2022-11-18T04:44:32.409Z,99119.61
2022-11-18T04:47:03.977Z,99115.08
2022-11-18T04:49:36.680Z,99108.38
2022-11-18T04:52:08.809Z,99109.34
2022-11-18T04:54:42.401Z,99108.98
2022-11-18T04:57:14.436Z,99105.99
2022-11-18T04:59:46.082Z,99112.05
2022-11-18T05:02:17.731Z,99110.55
2022-11-18T05:04:49.465Z,99107.80
2022-11-18T05:07:20.992Z,99102.77
2022-11-18T05:09:53.010Z,99100.22
2022-11-18T05:12:42.342Z,99101.77
2022-11-18T05:15:14.298Z,99098.27
2022-11-18T05:17:45.940Z,99094.77
2022-11-18T05:20:18.218Z,99091.57
2022-11-18T05:22:49.979Z,99094.37
2022-11-18T05:25:22.841Z,99093.62
2022-11-18T05:27:54.235Z,99092.42
2022-11-18T05:30:26.576Z,99092.16
2022-11-18T05:32:58.248Z,99093.44
2022-11-18T05:35:30.312Z,99092.35
2022-11-18T05:38:02.861Z,99096.92
2022-11-18T05:40:34.470Z,99101.30
2022-11-18T05:43:13.835Z,99100.20
2022-11-18T05:46:07.135Z,99100.79
2022-11-18T05:48:38.855Z,99103.21
2022-11-18T05:51:10.577Z,99104.45
2022-11-18T05:53:42.265Z,99107.98
2022-11-18T05:56:21.827Z,99106.30
2022-11-18T05:58:53.960Z,99106.32
2022-11-18T06:01:32.449Z,99109.86
2022-11-18T06:04:09.780Z,99108.96
2022-11-18T06:06:41.771Z,99114.29
2022-11-18T06:09:17.298Z,99112.98
2022-11-18T06:11:54.653Z,99110.23
2022-11-18T06:14:31.559Z,99111.42
2022-11-18T06:17:06.505Z,99108.40
2022-11-18T06:19:38.663Z,99111.63
2022-11-18T06:22:11.532Z,99108.39
2022-11-18T06:24:44.578Z,99109.85
2022-11-18T06:27:18.168Z,99112.79
2022-11-18T06:29:49.734Z,99114.94
2022-11-18T06:32:21.337Z,99117.45
2022-11-18T06:34:53.381Z,99125.22
2022-11-18T06:37:25.039Z,99126.45
2022-11-18T06:39:56.589Z,99133.77
2022-11-18T06:42:47.715Z,99136.40
2022-11-18T06:45:19.898Z,99136.09
2022-11-18T06:47:52.144Z,99144.45
2022-11-18T06:50:25.336Z,99143.07
2022-11-18T06:52:57.037Z,99147.10
2022-11-18T06:55:28.731Z,99150.52
2022-11-18T06:58:00.750Z,99151.81
2022-11-18T07:00:33.515Z,99154.55
2022-11-18T07:03:07.858Z,99161.12
2022-11-18T07:05:39.367Z,99163.55
2022-11-18T07:08:11.067Z,99162.33
2022-11-18T07:10:42.497Z,99164.43
2022-11-18T07:13:14.504Z,99166.74
2022-11-18T07:15:46.326Z,99170.63
2022-11-18T07:18:17.931Z,99165.47
2022-11-18T07:20:49.396Z,99170.87
2022-11-18T07:23:21.122Z,99171.52
2022-11-18T07:25:55.759Z,99176.02
2022-11-18T07:28:27.848Z,99178.00
2022-11-18T07:31:08.340Z,99175.10
2022-11-18T07:33:40.832Z,99174.98
2022-11-18T07:36:14.491Z,99178.86
2022-11-18T07:38:46.707Z,99180.95
2022-11-18T07:41:20.303Z,99185.36
2022-11-18T07:43:59.028Z,99187.30
2022-11-18T07:46:33.692Z,99189.27
2022-11-18T07:49:07.503Z,99190.56
2022-11-18T07:51:41.006Z,99195.87
2022-11-18T07:54:16.600Z,99193.62
2022-11-18T07:56:51.710Z,99193.95
2022-11-18T07:59:24.008Z,99195.23
2022-11-18T08:01:57.862Z,99195.36
2022-11-18T08:04:31.131Z,99194.95
2022-11-18T08:07:06.146Z,99197.59
2022-11-18T08:09:46.913Z,99191.88
2022-11-18T08:12:33.457Z,99187.86
2022-11-18T08:15:06.845Z,99195.94
2022-11-18T08:17:41.215Z,99193.27
2022-11-18T08:20:16.486Z,99197.73
2022-11-18T08:22:52.973Z,99199.28
2022-11-18T08:25:32.979Z,99197.90
2022-11-18T08:28:08.832Z,99194.59
2022-11-18T08:30:59.319Z,99193.20
2022-11-18T08:34:00.784Z,99181.65
2022-11-18T08:36:53.611Z,99186.14
2022-11-18T08:39:27.185Z,99182.56
2022-11-18T08:42:11.327Z,99183.10
2022-11-18T08:45:06.265Z,99186.39
2022-11-18T08:47:52.949Z,99184.90
2022-11-18T08:53:40.305Z,99174.58
2022-11-18T08:56:31.928Z,99179.31
2022-11-18T08:59:52.209Z,99183.20
2022-11-18T09:02:37.756Z,99189.27
2022-11-18T09:05:37.743Z,99187.02
2022-11-18T09:08:21.463Z,99181.64
2022-11-18T09:10:59.949Z,99181.28
2022-11-18T09:14:25.909Z,99192.64
2022-11-18T09:16:47.532Z,99189.23
2022-11-18T09:22:14.910Z,99189.87
2022-11-18T09:24:50.798Z,99192.91
2022-11-18T09:27:24.417Z,99189.23
2022-11-18T09:30:22.008Z,99188.29
2022-11-18T09:32:57.708Z,99188.14
2022-11-18T09:35:43.513Z,99190.32
2022-11-18T09:38:15.692Z,99181.94
2022-11-18T09:41:02.374Z,99184.23
2022-11-18T09:43:45.166Z,99189.23
2022-11-18T09:46:28.999Z,99186.11
2022-11-18T09:49:16.078Z,99178.50
2022-11-18T09:51:56.945Z,99179.70
2022-11-18T09:54:37.082Z,99179.65
2022-11-18T09:57:16.240Z,99175.45
2022-11-18T09:59:47.861Z,99174.50
2022-11-18T10:02:47.033Z,99175.81
2022-11-18T10:05:22.612Z,99176.23
2022-11-18T10:08:13.990Z,99180.45
2022-11-18T10:10:56.991Z,99182.31
2022-11-18T10:13:43.819Z,99183.09
2022-11-18T10:16:29.622Z,99180.89
2022-11-18T10:19:11.236Z,99185.38
2022-11-18T10:21:53.083Z,99185.88
2022-11-18T10:24:26.333Z,99187.39
2022-11-18T10:27:03.156Z,99184.52
2022-11-18T10:29:36.777Z,99189.34
2022-11-18T10:32:14.111Z,99190.63
2022-11-18T10:34:53.997Z,99196.92
2022-11-18T10:40:34.221Z,99183.73
2022-11-18T10:43:05.927Z,99183.12
2022-11-18T10:45:44.409Z,99183.31
2022-11-18T10:48:23.086Z,99187.75
2022-11-18T10:50:56.131Z,99187.73
2022-11-18T10:53:36.329Z,99188.32
2022-11-18T10:56:12.869Z,99190.99
2022-11-18T10:58:50.497Z,99191.66
2022-11-18T11:01:29.502Z,99183.40
2022-11-18T11:04:04.897Z,99195.77
2022-11-18T11:06:40.614Z,99194.95
2022-11-18T11:09:25.445Z,99199.18
2022-11-18T11:12:03.822Z,99200.59
2022-11-18T11:14:48.058Z,99197.43
2022-11-18T11:17:24.290Z,99200.76
2022-11-18T11:20:17.398Z,99202.88
2022-11-18T11:22:51.342Z,99201.80
2022-11-18T11:28:31.709Z,99201.46
2022-11-18T11:31:18.730Z,99193.88
2022-11-18T11:33:57.593Z,99195.42
2022-11-18T11:36:50.576Z,99205.52
2022-11-18T11:39:54.580Z,99208.29
2022-11-18T11:42:42.671Z,99207.05
2022-11-18T11:45:32.636Z,99201.14
2022-11-18T11:48:19.976Z,99204.16
2022-11-18T11:51:01.955Z,99198.70
2022-11-18T11:54:07.453Z,99204.75
2022-11-18T11:56:43.792Z,99211.38
2022-11-18T11:59:27.465Z,99212.50
2022-11-18T12:02:30.390Z,99218.50
2022-11-18T12:05:07.707Z,99217.17
2022-11-18T12:07:46.955Z,99213.06
2022-11-18T12:10:32.169Z,99215.81
2022-11-18T12:13:19.333Z,99217.73
2022-11-18T12:16:03.333Z,99225.48
2022-11-18T12:18:41.108Z,99226.02
2022-11-18T12:21:35.194Z,99224.86
2022-11-18T12:24:32.444Z,99220.69
2022-11-18T12:27:06.220Z,99228.89
2022-11-18T12:29:55.723Z,99230.07
2022-11-18T12:32:36.943Z,99235.48
2022-11-18T12:35:26.808Z,99231.27
2022-11-18T12:38:28.328Z,99234.01
2022-11-18T12:41:19.871Z,99232.42
2022-11-18T12:44:07.795Z,99233.27
2022-11-18T12:46:58.538Z,99233.61
2022-11-18T12:50:15.499Z,99225.65
2022-11-18T12:52:57.971Z,99231.26
2022-11-18T12:55:42.020Z,99231.04
2022-11-18T12:58:45.165Z,99239.83
2022-11-18T13:01:18.484Z,99218.95
2022-11-18T13:03:50.362Z,99234.78
2022-11-18T13:06:34.686Z,99232.81
2022-11-18T13:09:16.079Z,99227.99
2022-11-18T13:11:53.429Z,99223.70
2022-11-18T13:15:04.338Z,99219.48
2022-11-18T13:17:57.551Z,99222.80
2022-11-18T13:20:33.563Z,99224.46
2022-11-18T13:23:30.129Z,99221.77
2022-11-18T13:26:14.277Z,99223.21
2022-11-18T13:28:54.480Z,99225.41
2022-11-18T13:31:33.747Z,99230.19
2022-11-18T13:34:22.015Z,99229.63
2022-11-18T13:36:58.682Z,99232.63
2022-11-18T13:39:39.278Z,99234.74
2022-11-18T13:42:21.439Z,99229.20
2022-11-18T13:45:01.185Z,99235.67
2022-11-18T13:47:47.782Z,99240.70
2022-11-18T13:50:35.070Z,99242.94
2022-11-18T13:53:17.845Z,99243.04
2022-11-18T13:55:53.350Z,99240.61
2022-11-18T13:59:10.233Z,99247.52
2022-11-18T14:01:46.871Z,99244.02
2022-11-18T14:04:23.517Z,99251.94
2022-11-18T14:06:55.352Z,99257.96
2022-11-18T14:09:39.103Z,99254.48
2022-11-18T14:12:29.252Z,99258.33
2022-11-18T14:15:25.114Z,99263.41
2022-11-18T14:18:00.887Z,99255.82
2022-11-18T14:20:33.912Z,99266.54
2022-11-18T14:23:32.891Z,99267.63
2022-11-18T14:26:11.146Z,99258.77
2022-11-18T14:28:55.000Z,99276.84
2022-11-18T14:31:29.939Z,99279.54
2022-11-18T14:34:23.815Z,99278.17
2022-11-18T14:36:57.425Z,99281.13
2022-11-18T14:39:42.385Z,99288.16
2022-11-18T14:42:20.274Z,99283.83
2022-11-18T14:45:19.010Z,99287.04
2022-11-18T14:48:03.679Z,99285.20
2022-11-18T14:50:35.702Z,99295.84
2022-11-18T14:53:11.493Z,99303.25
2022-11-18T14:55:44.096Z,99303.47
2022-11-18T14:58:18.322Z,99309.41
2022-11-18T15:00:50.905Z,99308.79
2022-11-18T15:03:46.393Z,99313.55
2022-11-18T15:06:26.060Z,99315.81
2022-11-18T15:09:05.485Z,99312.65
2022-11-18T15:11:37.359Z,99318.69
2022-11-18T15:14:10.275Z,99323.08
2022-11-18T15:16:41.644Z,99322.20
2022-11-18T15:19:17.473Z,99320.55
2022-11-18T15:21:48.733Z,99324.70
2022-11-18T15:24:20.947Z,99327.88
2022-11-18T15:26:52.898Z,99330.14
2022-11-18T15:29:27.295Z,99331.82
2022-11-18T15:32:01.386Z,99331.59
2022-11-18T15:34:32.946Z,99335.33
2022-11-18T15:37:05.585Z,99338.88
2022-11-18T15:39:37.217Z,99343.39
2022-11-18T15:42:08.949Z,99345.10
2022-11-18T15:44:41.259Z,99343.48
2022-11-18T15:47:13.116Z,99344.59
2022-11-18T15:49:45.672Z,99347.35
2022-11-18T15:52:19.592Z,99353.15
2022-11-18T15:54:51.560Z,99353.56
2022-11-18T15:57:34.879Z,99355.95
2022-11-18T16:00:09.665Z,99356.71
2022-11-18T16:02:39.539Z,99359.84
2022-11-18T16:05:13.196Z,99361.90
2022-11-18T16:07:45.200Z,99367.95
2022-11-18T16:10:34.255Z,99372.17
2022-11-18T16:13:05.684Z,99376.08
2022-11-18T16:15:48.615Z,99374.94
2022-11-18T16:18:23.152Z,99376.17
2022-11-18T16:21:01.402Z,99373.50
2022-11-18T16:23:32.740Z,99371.71
2022-11-18T16:26:04.523Z,99371.93
2022-11-18T16:28:35.914Z,99379.23
2022-11-18T16:31:24.977Z,99383.80
2022-11-18T16:33:56.475Z,99381.95
2022-11-18T16:36:31.595Z,99382.44
2022-11-18T16:39:07.400Z,99380.73
2022-11-18T16:41:39.722Z,99380.42
2022-11-18T16:44:13.257Z,99377.91
2022-11-18T16:46:47.791Z,99380.11
2022-11-18T16:49:20.845Z,99382.02
2022-11-18T16:51:54.990Z,99382.96
2022-11-18T16:54:27.490Z,99382.03
2022-11-18T16:57:01.032Z,99384.76
2022-11-18T16:59:33.538Z,99388.60
2022-11-18T17:02:05.513Z,99386.48
2022-11-18T17:04:39.276Z,99387.41
2022-11-18T17:07:10.845Z,99387.22
2022-11-18T17:09:42.458Z,99385.30
2022-11-18T17:12:13.929Z,99389.85
2022-11-18T17:14:45.673Z,99391.90
2022-11-18T17:17:18.759Z,99391.91
2022-11-18T17:19:50.244Z,99391.62
2022-11-18T17:22:21.862Z,99394.33
2022-11-18T17:24:53.462Z,99402.64
2022-11-18T17:27:25.433Z,99405.42
2022-11-18T17:29:57.109Z,99404.98
2022-11-18T17:32:28.905Z,99404.52
2022-11-18T17:35:00.259Z,99412.54
2022-11-18T17:37:33.595Z,99410.98
2022-11-18T17:40:05.827Z,99405.14
2022-11-18T17:42:37.646Z,99408.29
2022-11-18T17:45:12.147Z,99412.52
2022-11-18T17:47:43.541Z,99416.07
2022-11-18T17:50:15.061Z,99417.92
2022-11-18T17:52:50.134Z,99420.29
2022-11-18T17:55:21.886Z,99423.45
2022-11-18T17:57:53.626Z,99426.06
2022-11-18T18:00:25.866Z,99420.60
2022-11-18T18:02:57.397Z,99425.09
2022-11-18T18:05:28.894Z,99423.92
2022-11-18T18:08:01.780Z,99426.68
2022-11-18T18:10:34.688Z,99434.20
2022-11-18T18:13:24.739Z,99435.66
2022-11-18T18:16:04.184Z,99438.25
2022-11-18T18:18:36.038Z,99440.08
2022-11-18T18:21:12.663Z,99443.48
2022-11-18T18:23:45.045Z,99445.65
2022-11-18T18:26:16.498Z,99448.95
2022-11-18T18:28:49.669Z,99453.83
2022-11-18T18:31:21.605Z,99444.92
2022-11-18T18:33:53.421Z,99461.52
2022-11-18T18:36:36.173Z,99460.38
2022-11-18T18:39:08.254Z,99459.80
2022-11-18T18:41:39.983Z,99459.86
2022-11-18T18:44:16.783Z,99461.35
2022-11-18T18:46:51.453Z,99459.46
2022-11-18T18:49:25.236Z,99456.30
2022-11-18T18:51:57.652Z,99463.69
2022-11-18T18:54:29.678Z,99459.61
2022-11-18T18:57:02.966Z,99465.85
2022-11-18T18:59:36.004Z,99466.25
2022-11-18T19:02:07.648Z,99467.83
2022-11-18T19:04:40.288Z,99466.18
2022-11-18T19:07:12.741Z,99468.48
2022-11-18T19:09:46.079Z,99474.69
2022-11-18T19:12:36.308Z,99470.02
2022-11-18T19:15:09.728Z,99469.52
2022-11-18T19:17:41.896Z,99475.69
2022-11-18T19:20:33.770Z,99475.63
2022-11-18T19:23:10.493Z,99483.14
2022-11-18T19:25:44.422Z,99481.13
2022-11-18T19:28:16.645Z,99478.58
2022-11-18T19:30:48.483Z,99479.41
2022-11-18T19:33:20.488Z,99487.84
2022-11-18T19:35:52.525Z,99479.85
2022-11-18T19:38:25.558Z,99482.39
2022-11-18T19:41:03.888Z,99482.91
2022-11-18T19:43:35.906Z,99484.09
2022-11-18T19:46:09.488Z,99484.23
2022-11-18T19:48:41.683Z,99485.37
2022-11-18T19:51:18.168Z,99490.23
2022-11-18T19:53:50.940Z,99490.00
2022-11-18T19:56:24.448Z,99497.05
2022-11-18T19:58:56.693Z,99496.45
2022-11-18T20:01:30.463Z,99497.07
2022-11-18T20:04:03.680Z,99497.27
2022-11-18T20:06:38.345Z,99503.57
2022-11-18T20:09:10.300Z,99500.91
2022-11-18T20:11:42.168Z,99498.52
2022-11-18T20:14:15.962Z,99504.73
2022-11-18T20:16:51.821Z,99505.45
2022-11-18T20:19:26.063Z,99506.66
2022-11-18T20:21:59.472Z,99508.53
2022-11-18T20:24:31.623Z,99510.02
2022-11-18T20:27:04.932Z,99511.27
2022-11-18T20:29:37.818Z,99512.03
2022-11-18T20:32:10.776Z,99510.96
2022-11-18T20:34:42.991Z,99516.80
2022-11-18T20:37:15.689Z,99520.41
2022-11-18T20:39:49.324Z,99516.96
2022-11-18T20:42:39.451Z,99518.17
2022-11-18T20:45:16.180Z,99519.83
2022-11-18T20:47:48.145Z,99522.33
2022-11-18T20:50:21.230Z,99516.86
2022-11-18T20:52:53.451Z,99524.34
2022-11-18T20:55:25.498Z,99525.42
2022-11-18T20:57:57.457Z,99528.08
2022-11-18T21:00:29.764Z,99526.92
2022-11-18T21:03:01.740Z,99525.00
2022-11-18T21:05:34.849Z,99530.10
2022-11-18T21:08:06.888Z,99525.71
2022-11-18T21:10:39.582Z,99529.50
2022-11-18T21:13:28.796Z,99533.60
2022-11-18T21:16:00.434Z,99531.33
2022-11-18T21:18:34.006Z,99533.77
2022-11-18T21:21:28.589Z,99537.86
2022-11-18T21:24:01.820Z,99541.55
2022-11-18T21:26:35.496Z,99540.27
2022-11-18T21:29:10.008Z,99544.04
2022-11-18T21:31:42.589Z,99543.04
2022-11-18T21:34:16.502Z,99546.73
2022-11-18T21:36:53.202Z,99542.85
2022-11-18T21:39:27.546Z,99543.87
2022-11-18T21:41:59.435Z,99541.31
2022-11-18T21:44:30.986Z,99543.12
2022-11-18T21:47:03.828Z,99546.93
2022-11-18T21:49:35.617Z,99546.91
2022-11-18T21:52:07.535Z,99549.30
2022-11-18T21:54:41.975Z,99545.83
2022-11-18T21:57:13.617Z,99554.27
2022-11-18T21:59:45.480Z,99556.77
2022-11-18T22:02:17.976Z,99553.64
2022-11-18T22:04:56.475Z,99556.96
2022-11-18T22:07:28.317Z,99558.58
2022-11-18T22:10:01.165Z,99557.88
2022-11-18T22:12:32.452Z,99560.11
2022-11-18T22:15:03.871Z,99564.64
2022-11-18T22:17:35.216Z,99569.14
2022-11-18T22:20:08.598Z,99571.35
2022-11-18T22:22:41.189Z,99570.98
2022-11-18T22:25:14.588Z,99576.70
2022-11-18T22:27:46.388Z,99581.88
2022-11-18T22:30:18.927Z,99581.26
2022-11-18T22:32:50.293Z,99580.77
2022-11-18T22:35:21.667Z,99580.25
2022-11-18T22:37:53.855Z,99582.55
2022-11-18T22:40:25.809Z,99588.42
2022-11-18T22:42:57.204Z,99586.44
2022-11-18T22:45:29.333Z,99590.20
2022-11-18T22:48:00.929Z,99590.51
2022-11-18T22:50:32.371Z,99593.15
2022-11-18T22:53:03.727Z,99590.82
2022-11-18T22:55:35.472Z,99592.98
2022-11-18T22:58:07.178Z,99588.60
2022-11-18T23:00:39.832Z,99588.48
2022-11-18T23:03:11.172Z,99587.05
2022-11-18T23:05:42.471Z,99582.02
2022-11-18T23:08:14.284Z,99586.73
2022-11-18T23:10:45.796Z,99579.29
2022-11-18T23:13:35.110Z,99573.90
2022-11-18T23:16:06.628Z,99575.54
2022-11-18T23:18:38.202Z,99576.40
2022-11-18T23:21:15.704Z,99578.73
2022-11-18T23:23:47.508Z,99576.77
2022-11-18T23:26:19.237Z,99575.79
2022-11-18T23:28:50.484Z,99572.73
2022-11-18T23:31:23.672Z,99571.61
2022-11-18T23:33:56.952Z,99568.95
2022-11-18T23:36:29.493Z,99574.96
2022-11-18T23:39:00.931Z,99577.02
2022-11-18T23:41:32.183Z,99579.55
2022-11-18T23:44:03.758Z,99579.09
2022-11-18T23:46:35.497Z,99583.75
2022-11-18T23:49:10.936Z,99585.73
2022-11-18T23:51:42.282Z,99586.50
2022-11-18T23:54:13.873Z,99582.84
2022-11-18T23:56:45.229Z,99584.57
2022-11-18T23:59:17.412Z,99584.93
